Time;durP1;ratioP1;P1;durP2;ratioP2;P2;SDS_P1;SDS_P2;PMS_P1;PMS_P2;Temp;Humidity;BMP_temperature;BMP_pressure;BME280_temperature;BME280_humidity;BME280_pressure;Samples;Min_cycle;Max_cycle;Signal;HPM_P1;HPM_P2
2021/04/28 00:02:33;;;;;;;1.95;1.59;;;;;;;19.51;41.14;99256.26;;;;-58
2021/04/28 00:05:33;;;;;;;1.60;1.50;;;;;;;19.51;41.16;99253.24;;;;-58
2021/04/28 00:08:33;;;;;;;1.59;1.49;;;;;;;19.49;41.18;99253.52;;;;-53
2021/04/28 00:11:33;;;;;;;1.69;1.59;;;;;;;19.48;41.20;99254.74;;;;-53
2021/04/28 00:14:33;;;;;;;1.79;1.69;;;;;;;19.47;41.19;99253.06;;;;-53
2021/04/28 00:17:33;;;;;;;1.86;1.60;;;;;;;19.46;41.20;99247.78;;;;-58
2021/04/28 00:20:38;;;;;;;2.05;1.85;;;;;;;19.45;41.20;99246.34;;;;-53
2021/04/28 00:23:33;;;;;;;1.83;1.62;;;;;;;19.45;41.17;99244.56;;;;-62
2021/04/28 00:26:33;;;;;;;1.88;1.70;;;;;;;19.43;41.15;99237.42;;;;-61
2021/04/28 00:29:33;;;;;;;1.90;1.67;;;;;;;19.43;41.17;99234.44;;;;-54
2021/04/28 00:32:33;;;;;;;1.92;1.70;;;;;;;19.42;41.15;99237.92;;;;-55
2021/04/28 00:35:33;;;;;;;1.70;1.60;;;;;;;19.41;41.19;99232.42;;;;-61
2021/04/28 00:38:34;;;;;;;1.78;1.64;;;;;;;19.39;41.18;99225.54;;;;-60
2021/04/28 00:41:33;;;;;;;1.91;1.71;;;;;;;19.38;41.21;99225.88;;;;-61
2021/04/28 00:44:33;;;;;;;1.75;1.65;;;;;;;19.38;41.21;99226.77;;;;-60
2021/04/28 00:47:33;;;;;;;1.95;1.76;;;;;;;19.36;41.21;99223.72;;;;-54
2021/04/28 00:50:33;;;;;;;1.79;1.69;;;;;;;19.35;41.20;99225.91;;;;-53
2021/04/28 00:53:33;;;;;;;1.91;1.73;;;;;;;19.34;41.21;99222.94;;;;-53
2021/04/28 00:56:33;;;;;;;1.71;1.60;;;;;;;19.33;41.24;99222.28;;;;-58
2021/04/28 00:59:33;;;;;;;1.85;1.62;;;;;;;19.32;41.20;99218.09;;;;-59
2021/04/28 01:02:33;;;;;;;2.01;1.81;;;;;;;19.32;41.25;99219.88;;;;-59
2021/04/28 01:05:33;;;;;;;1.70;1.60;;;;;;;19.31;41.29;99221.19;;;;-62
2021/04/28 01:08:33;;;;;;;1.73;1.63;;;;;;;19.30;41.20;99220.61;;;;-59
2021/04/28 01:11:33;;;;;;;1.80;1.70;;;;;;;19.28;41.23;99216.02;;;;-60
2021/04/28 01:14:33;;;;;;;1.83;1.64;;;;;;;19.27;41.23;99218.77;;;;-60
2021/04/28 01:17:33;;;;;;;1.80;1.70;;;;;;;19.27;41.23;99216.59;;;;-60
2021/04/28 01:20:36;;;;;;;1.91;1.70;;;;;;;19.26;41.25;99216.20;;;;-61
2021/04/28 01:23:33;;;;;;;1.80;1.67;;;;;;;19.25;41.23;99215.22;;;;-62
2021/04/28 01:26:33;;;;;;;1.83;1.71;;;;;;;19.25;41.25;99214.35;;;;-58
2021/04/28 01:29:33;;;;;;;1.67;1.57;;;;;;;19.24;41.23;99215.68;;;;-58
2021/04/28 01:32:33;;;;;;;1.73;1.63;;;;;;;19.23;41.26;99216.08;;;;-58
2021/04/28 01:35:33;;;;;;;1.94;1.79;;;;;;;19.22;41.25;99212.77;;;;-58
2021/04/28 01:38:33;;;;;;;1.84;1.61;;;;;;;19.21;41.27;99215.77;;;;-58
2021/04/28 01:41:33;;;;;;;1.87;1.77;;;;;;;19.20;41.26;99209.78;;;;-53
2021/04/28 01:44:33;;;;;;;2.41;1.69;;;;;;;19.19;41.28;99211.16;;;;-53
2021/04/28 01:47:33;;;;;;;1.93;1.82;;;;;;;19.19;41.27;99213.85;;;;-53
2021/04/28 01:50:33;;;;;;;1.93;1.83;;;;;;;19.18;41.25;99210.22;;;;-53
2021/04/28 01:53:33;;;;;;;1.76;1.66;;;;;;;19.17;41.28;99206.72;;;;-53
2021/04/28 01:56:33;;;;;;;2.01;1.69;;;;;;;19.16;41.25;99207.39;;;;-58
2021/04/28 01:59:33;;;;;;;2.27;1.84;;;;;;;19.16;41.24;99204.97;;;;-58
2021/04/28 02:02:33;;;;;;;1.91;1.71;;;;;;;19.15;41.26;99209.19;;;;-58
2021/04/28 02:05:33;;;;;;;1.77;1.67;;;;;;;19.14;41.29;99205.16;;;;-58
2021/04/28 02:08:33;;;;;;;1.85;1.75;;;;;;;19.14;41.26;99205.81;;;;-58
2021/04/28 02:11:33;;;;;;;2.05;1.85;;;;;;;19.12;41.27;99203.46;;;;-55
2021/04/28 02:14:33;;;;;;;1.91;1.79;;;;;;;19.12;41.27;99209.32;;;;-58
2021/04/28 02:17:33;;;;;;;1.81;1.71;;;;;;;19.11;41.28;99209.17;;;;-53
2021/04/28 02:20:33;;;;;;;1.87;1.70;;;;;;;19.10;41.27;99202.77;;;;-53
2021/04/28 02:23:33;;;;;;;1.90;1.71;;;;;;;19.10;41.26;99199.19;;;;-53
2021/04/28 02:26:33;;;;;;;1.79;1.69;;;;;;;19.09;41.32;99193.50;;;;-54
2021/04/28 02:29:33;;;;;;;1.80;1.70;;;;;;;19.08;41.33;99190.43;;;;-54
2021/04/28 02:32:33;;;;;;;1.86;1.73;;;;;;;19.07;41.28;99187.38;;;;-55
2021/04/28 02:35:33;;;;;;;1.82;1.70;;;;;;;19.07;41.28;99185.56;;;;-55
2021/04/28 02:38:33;;;;;;;1.81;1.71;;;;;;;19.06;41.29;99183.96;;;;-53
2021/04/28 02:41:33;;;;;;;1.85;1.75;;;;;;;19.05;41.30;99184.96;;;;-53
2021/04/28 02:44:33;;;;;;;1.89;1.79;;;;;;;19.04;41.28;99182.84;;;;-58
2021/04/28 02:47:33;;;;;;;1.99;1.81;;;;;;;19.04;41.29;99179.61;;;;-60
2021/04/28 02:50:33;;;;;;;2.05;1.85;;;;;;;19.04;41.29;99180.84;;;;-61
2021/04/28 02:53:33;;;;;;;2.04;1.84;;;;;;;19.03;41.28;99180.62;;;;-53
2021/04/28 02:56:33;;;;;;;1.87;1.77;;;;;;;19.02;41.26;99175.18;;;;-61
2021/04/28 02:59:33;;;;;;;2.01;1.81;;;;;;;19.02;41.27;99174.53;;;;-60
2021/04/28 03:02:33;;;;;;;1.91;1.72;;;;;;;19.00;41.29;99173.08;;;;-53
2021/04/28 03:05:33;;;;;;;1.93;1.77;;;;;;;19.00;41.26;99171.64;;;;-53
2021/04/28 03:08:33;;;;;;;1.86;1.76;;;;;;;18.98;41.28;99167.41;;;;-59
2021/04/28 03:11:33;;;;;;;1.94;1.83;;;;;;;18.98;41.29;99165.23;;;;-60
2021/04/28 03:14:33;;;;;;;2.05;1.84;;;;;;;18.96;41.29;99165.16;;;;-60
2021/04/28 03:17:33;;;;;;;2.22;1.89;;;;;;;18.96;41.28;99167.76;;;;-61
2021/04/28 03:20:33;;;;;;;2.00;1.80;;;;;;;18.96;41.30;99166.48;;;;-55
2021/04/28 03:23:33;;;;;;;2.03;1.81;;;;;;;18.95;41.27;99164.86;;;;-54
2021/04/28 03:26:33;;;;;;;1.94;1.81;;;;;;;18.95;41.27;99163.33;;;;-54
2021/04/28 03:29:33;;;;;;;1.95;1.79;;;;;;;18.94;41.29;99163.65;;;;-55
2021/04/28 03:32:33;;;;;;;1.95;1.80;;;;;;;18.94;41.30;99167.89;;;;-53
2021/04/28 03:35:33;;;;;;;2.73;2.02;;;;;;;18.93;41.28;99166.52;;;;-54
2021/04/28 03:38:33;;;;;;;1.91;1.81;;;;;;;18.92;41.27;99166.12;;;;-61
2021/04/28 03:41:33;;;;;;;2.09;1.91;;;;;;;18.92;41.28;99165.39;;;;-61
2021/04/28 03:44:33;;;;;;;2.05;1.90;;;;;;;18.91;41.28;99165.98;;;;-61
2021/04/28 03:47:33;;;;;;;1.92;1.80;;;;;;;18.90;41.28;99168.80;;;;-60
2021/04/28 03:50:33;;;;;;;2.20;2.00;;;;;;;18.90;41.29;99175.97;;;;-53
2021/04/28 03:53:33;;;;;;;2.05;1.84;;;;;;;18.90;41.29;99177.03;;;;-53
2021/04/28 03:56:33;;;;;;;2.06;1.87;;;;;;;18.89;41.29;99177.61;;;;-52
2021/04/28 03:59:33;;;;;;;2.45;1.97;;;;;;;18.88;41.30;99179.88;;;;-53
2021/04/28 04:02:33;;;;;;;1.89;1.79;;;;;;;18.88;41.33;99181.83;;;;-58
2021/04/28 04:05:33;;;;;;;2.06;1.86;;;;;;;18.87;41.27;99187.69;;;;-58
2021/04/28 04:08:33;;;;;;;2.22;2.02;;;;;;;18.87;41.30;99183.48;;;;-61
2021/04/28 04:11:33;;;;;;;2.29;1.84;;;;;;;18.86;41.29;99189.23;;;;-58
2021/04/28 04:14:33;;;;;;;2.09;1.89;;;;;;;18.86;41.31;99189.80;;;;-53
2021/04/28 04:17:33;;;;;;;2.01;1.80;;;;;;;18.84;41.33;99189.27;;;;-53
2021/04/28 04:20:33;;;;;;;2.07;1.87;;;;;;;18.84;41.34;99198.26;;;;-59
2021/04/28 04:23:33;;;;;;;2.20;2.00;;;;;;;18.84;41.34;99199.09;;;;-60
2021/04/28 04:26:33;;;;;;;2.22;1.96;;;;;;;18.83;41.37;99199.59;;;;-59
2021/04/28 04:29:33;;;;;;;1.99;1.80;;;;;;;18.83;41.35;99197.80;;;;-61
2021/04/28 04:32:33;;;;;;;1.88;1.75;;;;;;;18.83;41.37;99202.76;;;;-59
2021/04/28 04:35:33;;;;;;;2.02;1.75;;;;;;;18.82;41.36;99202.13;;;;-61
2021/04/28 04:38:33;;;;;;;1.92;1.80;;;;;;;18.81;41.39;99201.14;;;;-61
2021/04/28 04:41:33;;;;;;;1.90;1.79;;;;;;;18.81;41.36;99204.97;;;;-58
2021/04/28 04:44:33;;;;;;;2.17;1.88;;;;;;;18.81;41.40;99206.52;;;;-61
2021/04/28 04:47:33;;;;;;;2.93;1.95;;;;;;;18.81;41.39;99205.95;;;;-53
2021/04/28 04:50:33;;;;;;;1.93;1.80;;;;;;;18.80;41.40;99208.30;;;;-61
2021/04/28 04:53:33;;;;;;;1.77;1.67;;;;;;;18.79;41.43;99205.64;;;;-58
2021/04/28 04:56:33;;;;;;;2.00;1.89;;;;;;;18.78;41.39;99204.09;;;;-53
2021/04/28 04:59:33;;;;;;;2.01;1.78;;;;;;;18.78;41.38;99202.22;;;;-54
2021/04/28 05:02:33;;;;;;;2.15;1.79;;;;;;;18.77;41.42;99205.94;;;;-61
2021/04/28 05:05:33;;;;;;;1.94;1.77;;;;;;;18.76;41.43;99201.44;;;;-54
2021/04/28 05:08:33;;;;;;;1.94;1.70;;;;;;;18.75;41.40;99204.83;;;;-61
2021/04/28 05:11:33;;;;;;;1.84;1.74;;;;;;;18.75;41.40;99204.60;;;;-52
2021/04/28 05:14:33;;;;;;;1.99;1.80;;;;;;;18.75;41.36;99213.12;;;;-58
2021/04/28 05:17:33;;;;;;;2.02;1.82;;;;;;;18.74;41.42;99212.97;;;;-59
2021/04/28 05:20:33;;;;;;;1.83;1.73;;;;;;;18.75;41.39;99219.36;;;;-59
2021/04/28 05:23:33;;;;;;;2.11;1.90;;;;;;;18.75;41.37;99220.33;;;;-58
2021/04/28 05:26:33;;;;;;;2.85;1.80;;;;;;;18.76;41.43;99223.08;;;;-58
2021/04/28 05:29:33;;;;;;;2.03;1.84;;;;;;;18.76;41.41;99219.92;;;;-58
2021/04/28 05:32:33;;;;;;;1.90;1.80;;;;;;;18.78;41.40;99221.76;;;;-61
2021/04/28 05:35:33;;;;;;;1.81;1.71;;;;;;;18.78;41.41;99218.45;;;;-61
2021/04/28 05:38:33;;;;;;;1.79;1.65;;;;;;;18.80;41.45;99220.33;;;;-58
2021/04/28 05:41:33;;;;;;;1.80;1.70;;;;;;;18.82;41.46;99223.22;;;;-58
2021/04/28 05:44:33;;;;;;;1.91;1.81;;;;;;;18.84;41.49;99224.32;;;;-53
2021/04/28 05:47:33;;;;;;;1.80;1.70;;;;;;;18.86;41.44;99224.46;;;;-53
2021/04/28 05:50:33;;;;;;;1.91;1.76;;;;;;;18.87;41.47;99223.64;;;;-58
2021/04/28 05:53:33;;;;;;;1.83;1.73;;;;;;;18.90;41.47;99227.02;;;;-58
2021/04/28 05:56:33;;;;;;;1.97;1.80;;;;;;;18.92;41.48;99225.05;;;;-53
2021/04/28 05:59:33;;;;;;;4.16;1.72;;;;;;;18.96;41.75;99222.80;;;;-46
2021/04/28 06:02:33;;;;;;;2.40;1.85;;;;;;;19.00;42.57;99227.64;;;;-53
2021/04/28 06:05:33;;;;;;;4.71;1.80;;;;;;;19.04;42.78;99225.89;;;;-66
2021/04/28 06:08:33;;;;;;;2.66;1.82;;;;;;;19.09;43.18;99222.41;;;;-45
2021/04/28 06:11:33;;;;;;;2.06;1.86;;;;;;;19.14;43.13;99224.80;;;;-51
2021/04/28 06:14:33;;;;;;;2.53;1.87;;;;;;;19.18;43.20;99223.61;;;;-49
2021/04/28 06:17:33;;;;;;;2.49;1.85;;;;;;;19.22;43.26;99227.14;;;;-50
2021/04/28 06:20:33;;;;;;;6.71;2.41;;;;;;;19.18;41.68;99226.78;;;;-52
2021/04/28 06:23:33;;;;;;;3.71;3.00;;;;;;;19.13;41.22;99223.51;;;;-52
2021/04/28 06:26:33;;;;;;;5.78;3.00;;;;;;;19.09;40.99;99224.20;;;;-50
2021/04/28 06:29:33;;;;;;;9.09;3.23;;;;;;;19.11;41.37;99221.34;;;;-53
2021/04/28 06:32:33;;;;;;;6.55;2.88;;;;;;;19.16;41.84;99223.87;;;;-52
2021/04/28 06:35:33;;;;;;;4.68;2.97;;;;;;;19.22;41.88;99216.34;;;;-53
2021/04/28 06:38:33;;;;;;;7.24;2.45;;;;;;;19.24;41.66;99218.35;;;;-53
2021/04/28 06:41:33;;;;;;;13.11;2.43;;;;;;;19.25;41.64;99218.56;;;;-52
2021/04/28 06:44:33;;;;;;;4.01;2.40;;;;;;;19.27;41.56;99219.51;;;;-53
2021/04/28 06:47:33;;;;;;;4.87;2.35;;;;;;;19.28;41.56;99221.55;;;;-53
2021/04/28 06:50:33;;;;;;;3.57;2.38;;;;;;;19.28;41.51;99219.42;;;;-53
2021/04/28 06:53:33;;;;;;;2.85;2.39;;;;;;;19.31;41.53;99217.61;;;;-53
2021/04/28 06:56:33;;;;;;;4.41;2.45;;;;;;;19.31;41.53;99218.48;;;;-51
2021/04/28 06:59:33;;;;;;;3.17;2.04;;;;;;;19.33;41.42;99217.91;;;;-51
2021/04/28 07:02:33;;;;;;;4.98;2.27;;;;;;;19.34;41.60;99220.88;;;;-50
2021/04/28 07:05:33;;;;;;;3.89;2.19;;;;;;;19.36;41.89;99217.55;;;;-59
2021/04/28 07:08:33;;;;;;;4.21;2.41;;;;;;;19.39;41.91;99220.43;;;;-54
2021/04/28 07:11:33;;;;;;;4.62;2.41;;;;;;;19.40;41.82;99221.39;;;;-57
2021/04/28 07:14:33;;;;;;;2.98;2.19;;;;;;;19.42;41.94;99221.84;;;;-55
2021/04/28 07:17:34;;;;;;;2.85;2.29;;;;;;;19.43;42.11;99225.65;;;;-57
2021/04/28 07:20:33;;;;;;;3.78;2.44;;;;;;;19.44;42.12;99223.61;;;;-61
2021/04/28 07:23:33;;;;;;;3.63;2.23;;;;;;;19.46;42.17;99223.32;;;;-60
2021/04/28 07:26:33;;;;;;;5.41;2.25;;;;;;;19.48;42.13;99225.57;;;;-60
2021/04/28 07:29:33;;;;;;;4.17;2.20;;;;;;;19.49;42.09;99223.87;;;;-51
2021/04/28 07:32:33;;;;;;;2.29;2.09;;;;;;;19.50;42.13;99220.50;;;;-45
2021/04/28 07:35:50;;;;;;;3.08;2.23;;;;;;;19.51;42.10;99222.38;;;;-49
2021/04/28 07:38:33;;;;;;;4.48;2.04;;;;;;;19.52;42.16;99221.70;;;;-62
2021/04/28 07:41:33;;;;;;;2.73;2.25;;;;;;;19.53;42.12;99218.69;;;;-63
2021/04/28 07:44:33;;;;;;;2.32;2.01;;;;;;;19.55;42.21;99218.67;;;;-55
2021/04/28 07:47:33;;;;;;;3.01;2.13;;;;;;;19.56;42.10;99216.70;;;;-52
2021/04/28 07:50:33;;;;;;;2.65;2.09;;;;;;;19.57;42.11;99214.97;;;;-50
2021/04/28 07:53:33;;;;;;;2.67;1.93;;;;;;;19.56;42.14;99211.31;;;;-57
2021/04/28 07:56:33;;;;;;;3.01;2.22;;;;;;;19.58;42.14;99209.12;;;;-60
2021/04/28 07:59:33;;;;;;;2.81;2.02;;;;;;;19.59;42.36;99208.05;;;;-58
2021/04/28 08:02:33;;;;;;;4.33;2.15;;;;;;;19.58;42.09;99206.68;;;;-51
2021/04/28 08:05:33;;;;;;;4.83;2.38;;;;;;;19.56;41.69;99205.80;;;;-52
2021/04/28 08:08:33;;;;;;;5.53;2.96;;;;;;;19.54;41.35;99210.20;;;;-52
2021/04/28 08:11:33;;;;;;;5.53;2.52;;;;;;;19.55;41.19;99211.20;;;;-50
2021/04/28 08:14:33;;;;;;;6.16;2.46;;;;;;;19.55;41.28;99212.90;;;;-50
2021/04/28 08:17:33;;;;;;;4.55;2.51;;;;;;;19.54;41.37;99215.02;;;;-50
2021/04/28 08:20:33;;;;;;;3.25;2.27;;;;;;;19.54;41.33;99211.61;;;;-50
2021/04/28 08:23:34;;;;;;;3.13;2.28;;;;;;;19.54;41.31;99214.94;;;;-50
2021/04/28 08:26:33;;;;;;;3.39;2.18;;;;;;;19.54;41.36;99212.27;;;;-50
2021/04/28 08:29:33;;;;;;;4.41;2.31;;;;;;;19.53;41.35;99212.77;;;;-50
2021/04/28 08:32:33;;;;;;;3.29;2.18;;;;;;;19.53;41.50;99213.66;;;;-51
2021/04/28 08:35:33;;;;;;;2.81;2.35;;;;;;;19.54;41.55;99219.91;;;;-52
2021/04/28 08:38:33;;;;;;;3.92;2.41;;;;;;;19.52;41.24;99212.69;;;;-61
2021/04/28 08:41:33;;;;;;;4.18;2.61;;;;;;;19.52;41.23;99216.17;;;;-56
2021/04/28 08:44:34;;;;;;;4.89;2.55;;;;;;;19.51;40.91;99213.91;;;;-61
2021/04/28 08:47:33;;;;;;;3.37;2.75;;;;;;;19.50;41.01;99213.67;;;;-62
2021/04/28 08:50:33;;;;;;;4.14;2.46;;;;;;;19.51;40.96;99211.41;;;;-62
2021/04/28 08:53:33;;;;;;;2.88;2.43;;;;;;;19.50;41.07;99208.98;;;;-50
2021/04/28 08:56:33;;;;;;;3.58;2.70;;;;;;;19.49;41.14;99202.24;;;;-60
2021/04/28 08:59:33;;;;;;;3.83;2.31;;;;;;;19.49;41.16;99199.98;;;;-52
2021/04/28 09:02:33;;;;;;;5.01;2.53;;;;;;;19.49;41.17;99198.83;;;;-52
2021/04/28 09:05:33;;;;;;;4.00;2.45;;;;;;;19.49;41.16;99197.22;;;;-46
2021/04/28 09:08:33;;;;;;;3.53;2.46;;;;;;;19.49;41.11;99198.83;;;;-51
2021/04/28 09:11:33;;;;;;;5.74;2.47;;;;;;;19.48;41.18;99194.53;;;;-45
2021/04/28 09:14:33;;;;;;;4.81;2.44;;;;;;;19.49;41.22;99194.28;;;;-46
2021/04/28 09:17:33;;;;;;;3.35;2.55;;;;;;;19.48;41.31;99190.55;;;;-58
2021/04/28 09:20:34;;;;;;;4.20;2.45;;;;;;;19.49;41.21;99183.41;;;;-53
2021/04/28 09:23:36;;;;;;;4.07;2.37;;;;;;;19.49;41.24;99179.66;;;;-52
2021/04/28 09:26:33;;;;;;;4.29;2.50;;;;;;;19.51;41.34;99177.67;;;;-57
2021/04/28 09:29:33;;;;;;;3.84;2.45;;;;;;;19.53;41.44;99174.34;;;;-50
2021/04/28 09:32:33;;;;;;;5.54;2.57;;;;;;;19.56;41.51;99175.34;;;;-47
2021/04/28 09:35:33;;;;;;;3.29;2.29;;;;;;;19.56;41.53;99172.31;;;;-45
2021/04/28 09:38:33;;;;;;;4.53;2.25;;;;;;;19.58;41.64;99171.00;;;;-52
2021/04/28 09:41:33;;;;;;;4.69;2.43;;;;;;;19.60;41.65;99168.63;;;;-52
2021/04/28 09:44:33;;;;;;;4.81;2.32;;;;;;;19.61;41.63;99167.95;;;;-51
2021/04/28 09:47:33;;;;;;;4.69;2.32;;;;;;;19.64;41.72;99170.19;;;;-52
2021/04/28 09:50:33;;;;;;;5.89;2.49;;;;;;;19.63;41.69;99164.02;;;;-44
2021/04/28 09:53:33;;;;;;;5.06;2.52;;;;;;;19.64;41.86;99164.59;;;;-49
2021/04/28 09:56:33;;;;;;;5.27;2.39;;;;;;;19.64;41.61;99162.95;;;;-52
2021/04/28 09:59:33;;;;;;;4.36;2.52;;;;;;;19.67;41.16;99161.84;;;;-47
2021/04/28 10:02:33;;;;;;;3.53;2.33;;;;;;;19.67;41.34;99158.09;;;;-52
2021/04/28 10:05:33;;;;;;;4.74;2.38;;;;;;;19.69;41.51;99157.09;;;;-48
2021/04/28 10:08:33;;;;;;;3.69;2.31;;;;;;;19.70;41.52;99153.03;;;;-52
2021/04/28 10:11:33;;;;;;;3.15;2.34;;;;;;;19.71;41.59;99152.21;;;;-52
2021/04/28 10:14:33;;;;;;;3.95;2.34;;;;;;;19.72;41.62;99153.60;;;;-45
2021/04/28 10:17:33;;;;;;;3.08;2.25;;;;;;;19.73;41.62;99156.89;;;;-51
2021/04/28 10:20:33;;;;;;;4.30;2.14;;;;;;;19.75;41.69;99155.42;;;;-46
2021/04/28 10:23:33;;;;;;;3.03;2.01;;;;;;;19.75;41.70;99151.34;;;;-52
2021/04/28 10:26:33;;;;;;;3.13;2.26;;;;;;;19.75;41.70;99148.00;;;;-55
2021/04/28 10:29:33;;;;;;;3.78;2.21;;;;;;;19.76;41.74;99148.16;;;;-54
2021/04/28 10:32:34;;;;;;;3.24;2.01;;;;;;;19.77;41.71;99145.54;;;;-51
2021/04/28 10:35:33;;;;;;;3.85;2.11;;;;;;;19.77;41.67;99143.02;;;;-52
2021/04/28 10:38:33;;;;;;;3.87;2.15;;;;;;;19.79;41.74;99141.53;;;;-51
2021/04/28 10:41:33;;;;;;;2.79;2.10;;;;;;;19.78;41.70;99138.86;;;;-56
2021/04/28 10:44:33;;;;;;;2.80;2.05;;;;;;;19.79;41.72;99136.23;;;;-53
2021/04/28 10:47:34;;;;;;;5.60;2.21;;;;;;;19.80;41.89;99134.61;;;;-58
2021/04/28 10:50:33;;;;;;;2.70;2.00;;;;;;;19.81;41.85;99132.23;;;;-58
2021/04/28 10:53:33;;;;;;;2.45;2.12;;;;;;;19.82;41.88;99131.89;;;;-46
2021/04/28 10:56:33;;;;;;;3.07;2.19;;;;;;;19.83;41.96;99127.80;;;;-50
2021/04/28 10:59:33;;;;;;;4.14;1.87;;;;;;;19.83;41.74;99122.68;;;;-51
2021/04/28 11:02:33;;;;;;;3.19;2.17;;;;;;;19.82;41.71;99120.03;;;;-53
2021/04/28 11:05:32;;;;;;;2.91;2.12;;;;;;;19.81;41.68;99119.39;;;;-54
2021/04/28 11:08:33;;;;;;;2.94;2.17;;;;;;;19.81;41.65;99117.53;;;;-58
2021/04/28 11:11:33;;;;;;;2.83;2.04;;;;;;;19.79;41.89;99107.87;;;;-49
2021/04/28 11:14:33;;;;;;;2.86;2.16;;;;;;;19.79;41.90;99110.88;;;;-44
2021/04/28 11:17:33;;;;;;;2.78;2.21;;;;;;;19.79;41.79;99105.02;;;;-47
2021/04/28 11:20:33;;;;;;;2.79;1.95;;;;;;;19.79;41.67;99106.80;;;;-46
2021/04/28 11:23:33;;;;;;;2.47;1.95;;;;;;;19.80;41.71;99104.22;;;;-48
2021/04/28 11:26:34;;;;;;;3.65;2.07;;;;;;;19.79;41.63;99103.49;;;;-52
2021/04/28 11:29:33;;;;;;;2.39;2.09;;;;;;;19.78;41.60;99104.06;;;;-47
2021/04/28 11:32:33;;;;;;;2.49;2.02;;;;;;;19.77;41.61;99097.49;;;;-46
2021/04/28 11:35:33;;;;;;;2.45;2.10;;;;;;;19.77;41.55;99101.65;;;;-46
2021/04/28 11:38:32;;;;;;;2.37;2.01;;;;;;;19.77;41.58;99096.36;;;;-46
2021/04/28 11:41:32;;;;;;;3.34;2.00;;;;;;;19.76;41.58;99090.23;;;;-46
2021/04/28 11:44:33;;;;;;;4.69;2.13;;;;;;;19.76;41.52;99094.60;;;;-47
2021/04/28 11:47:32;;;;;;;2.84;1.91;;;;;;;19.76;41.53;99083.73;;;;-46
2021/04/28 11:50:32;;;;;;;3.10;1.87;;;;;;;19.75;41.56;99077.88;;;;-46
2021/04/28 11:53:33;;;;;;;2.07;1.87;;;;;;;19.75;41.50;99082.66;;;;-47
2021/04/28 11:56:33;;;;;;;3.77;1.95;;;;;;;19.74;41.48;99074.06;;;;-46
2021/04/28 11:59:34;;;;;;;3.53;1.84;;;;;;;19.74;41.49;99068.97;;;;-46
2021/04/28 12:02:32;;;;;;;2.14;1.78;;;;;;;19.73;41.54;99067.00;;;;-46
2021/04/28 12:05:33;;;;;;;1.96;1.80;;;;;;;19.73;41.53;99063.35;;;;-46
2021/04/28 12:08:32;;;;;;;4.11;2.02;;;;;;;19.73;41.54;99061.39;;;;-51
2021/04/28 12:11:32;;;;;;;2.49;1.80;;;;;;;19.73;41.54;99053.75;;;;-51
2021/04/28 12:14:32;;;;;;;3.01;1.87;;;;;;;19.72;41.54;99047.85;;;;-51
2021/04/28 12:17:33;;;;;;;2.19;1.82;;;;;;;19.72;41.52;99045.99;;;;-51
2021/04/28 12:20:32;;;;;;;3.59;1.99;;;;;;;19.72;41.50;99044.94;;;;-51
2021/04/28 12:23:32;;;;;;;2.99;2.00;;;;;;;19.71;41.55;99039.15;;;;-51
2021/04/28 12:26:32;;;;;;;2.95;2.08;;;;;;;19.71;41.50;99037.05;;;;-51
2021/04/28 12:29:33;;;;;;;1.99;1.80;;;;;;;19.72;41.74;99034.45;;;;-59
2021/04/28 12:32:33;;;;;;;2.11;1.87;;;;;;;19.72;41.85;99030.95;;;;-51
2021/04/28 12:35:35;;;;;;;2.46;1.74;;;;;;;19.72;41.96;99031.92;;;;-51
2021/04/28 12:38:33;;;;;;;3.69;1.90;;;;;;;19.73;42.00;99024.00;;;;-52
2021/04/28 12:41:33;;;;;;;3.13;1.91;;;;;;;19.74;42.02;99025.31;;;;-52
2021/04/28 12:44:32;;;;;;;2.85;1.94;;;;;;;19.74;42.06;99019.53;;;;-52
2021/04/28 12:47:32;;;;;;;2.08;1.76;;;;;;;19.75;42.08;99018.52;;;;-52
2021/04/28 12:50:33;;;;;;;2.80;1.87;;;;;;;19.76;42.07;99016.02;;;;-58
2021/04/28 12:53:32;;;;;;;2.24;1.83;;;;;;;19.78;42.22;99017.04;;;;-62
2021/04/28 12:56:32;;;;;;;5.51;2.11;;;;;;;19.77;41.82;99011.91;;;;-60
2021/04/28 12:59:33;;;;;;;2.23;1.87;;;;;;;19.77;41.71;99005.90;;;;-52
2021/04/28 13:02:33;;;;;;;2.83;1.85;;;;;;;19.77;41.68;98999.97;;;;-60
2021/04/28 13:05:32;;;;;;;2.29;1.89;;;;;;;19.76;41.75;98996.92;;;;-59
2021/04/28 13:08:34;;;;;;;2.53;1.70;;;;;;;19.74;41.68;98993.11;;;;-60
2021/04/28 13:11:33;;;;;;;2.77;1.76;;;;;;;19.74;41.70;98992.22;;;;-60
2021/04/28 13:14:32;;;;;;;2.19;1.87;;;;;;;19.73;41.70;98984.67;;;;-51
2021/04/28 13:17:32;;;;;;;2.96;1.77;;;;;;;19.73;41.66;98975.48;;;;-51
2021/04/28 13:20:33;;;;;;;2.03;1.67;;;;;;;19.72;41.66;98980.80;;;;-53
2021/04/28 13:23:32;;;;;;;2.71;1.80;;;;;;;19.72;41.67;98982.09;;;;-55
2021/04/28 13:26:32;;;;;;;3.53;1.91;;;;;;;19.74;41.53;98981.52;;;;-55
2021/04/28 13:29:32;;;;;;;3.55;2.00;;;;;;;19.73;41.48;98974.67;;;;-55
2021/04/28 13:32:33;;;;;;;4.63;1.76;;;;;;;19.73;41.53;98967.21;;;;-53
2021/04/28 13:35:32;;;;;;;4.35;1.93;;;;;;;19.73;41.56;98963.15;;;;-52
2021/04/28 13:38:33;;;;;;;3.13;1.90;;;;;;;19.72;41.54;98962.28;;;;-53
2021/04/28 13:41:33;;;;;;;3.63;1.93;;;;;;;19.71;41.57;98959.02;;;;-53
2021/04/28 13:44:32;;;;;;;3.06;1.80;;;;;;;19.71;41.57;98955.05;;;;-55
2021/04/28 13:47:32;;;;;;;2.92;1.69;;;;;;;19.71;41.52;98950.98;;;;-59
2021/04/28 13:50:34;;;;;;;1.99;1.75;;;;;;;19.71;41.59;98947.56;;;;-53
2021/04/28 13:53:32;;;;;;;2.06;1.73;;;;;;;19.70;41.56;98945.88;;;;-55
2021/04/28 13:56:33;;;;;;;2.94;1.70;;;;;;;19.69;41.57;98946.19;;;;-51
2021/04/28 13:59:32;;;;;;;1.88;1.70;;;;;;;19.70;41.58;98939.86;;;;-53
2021/04/28 14:02:32;;;;;;;2.59;1.78;;;;;;;19.69;41.61;98933.02;;;;-53
2021/04/28 14:05:33;;;;;;;2.25;1.73;;;;;;;19.69;41.58;98936.11;;;;-59
2021/04/28 14:08:32;;;;;;;2.43;1.76;;;;;;;19.68;41.57;98924.19;;;;-55
2021/04/28 14:11:32;;;;;;;1.97;1.70;;;;;;;19.69;41.61;98921.98;;;;-59
2021/04/28 14:14:32;;;;;;;1.91;1.69;;;;;;;19.68;41.60;98921.27;;;;-58
2021/04/28 14:17:32;;;;;;;1.86;1.76;;;;;;;19.68;41.58;98914.87;;;;-55
2021/04/28 14:20:32;;;;;;;1.95;1.75;;;;;;;19.67;41.60;98910.24;;;;-55
2021/04/28 14:23:32;;;;;;;1.87;1.67;;;;;;;19.68;41.59;98908.36;;;;-51
2021/04/28 14:26:33;;;;;;;2.29;1.81;;;;;;;19.67;41.62;98905.61;;;;-53
2021/04/28 14:29:33;;;;;;;2.32;1.70;;;;;;;19.67;41.61;98909.25;;;;-53
2021/04/28 14:32:33;;;;;;;1.99;1.75;;;;;;;19.67;41.58;98901.78;;;;-54
2021/04/28 14:35:33;;;;;;;1.97;1.59;;;;;;;19.66;41.58;98899.69;;;;-52
2021/04/28 14:38:32;;;;;;;2.41;1.71;;;;;;;19.67;41.59;98895.37;;;;-58
2021/04/28 14:41:33;;;;;;;1.98;1.68;;;;;;;19.67;41.59;98894.39;;;;-55
2021/04/28 14:44:32;;;;;;;1.70;1.58;;;;;;;19.66;41.60;98894.66;;;;-55
2021/04/28 14:47:32;;;;;;;3.06;1.87;;;;;;;19.65;41.75;98896.63;;;;-59
2021/04/28 14:50:32;;;;;;;2.75;1.77;;;;;;;19.67;42.20;98892.61;;;;-47
2021/04/28 14:53:32;;;;;;;2.93;1.75;;;;;;;19.68;42.53;98892.19;;;;-53
2021/04/28 14:56:32;;;;;;;2.23;1.80;;;;;;;19.69;42.61;98890.61;;;;-49
2021/04/28 14:59:32;;;;;;;3.34;1.87;;;;;;;19.71;42.83;98892.55;;;;-61
2021/04/28 15:02:32;;;;;;;1.90;1.70;;;;;;;19.72;42.85;98886.78;;;;-48
2021/04/28 15:05:33;;;;;;;2.11;1.78;;;;;;;19.73;42.85;98891.05;;;;-50
2021/04/28 15:08:32;;;;;;;2.18;1.67;;;;;;;19.74;42.96;98894.95;;;;-53
2021/04/28 15:11:32;;;;;;;2.83;1.71;;;;;;;19.75;42.87;98896.14;;;;-50
2021/04/28 15:14:32;;;;;;;1.82;1.63;;;;;;;19.75;42.94;98898.23;;;;-51
2021/04/28 15:17:32;;;;;;;1.85;1.63;;;;;;;19.76;42.89;98899.06;;;;-59
2021/04/28 15:20:33;;;;;;;2.33;1.67;;;;;;;19.77;42.97;98904.39;;;;-50
2021/04/28 15:23:33;;;;;;;2.25;1.62;;;;;;;19.77;42.84;98900.31;;;;-57
2021/04/28 15:26:33;;;;;;;2.44;1.60;;;;;;;19.77;42.89;98905.44;;;;-48
2021/04/28 15:29:32;;;;;;;1.87;1.60;;;;;;;19.79;42.85;98911.16;;;;-55
2021/04/28 15:32:33;;;;;;;3.71;1.67;;;;;;;19.80;42.86;98909.04;;;;-49
2021/04/28 15:35:32;;;;;;;1.85;1.68;;;;;;;19.81;42.52;98922.75;;;;-60
2021/04/28 15:38:32;;;;;;;5.46;1.71;;;;;;;19.82;42.74;98910.87;;;;-60
2021/04/28 15:41:32;;;;;;;1.81;1.61;;;;;;;19.82;42.76;98914.28;;;;-55
2021/04/28 15:44:34;;;;;;;2.25;1.78;;;;;;;19.82;42.81;98911.53;;;;-47
2021/04/28 15:47:32;;;;;;;6.85;1.74;;;;;;;19.83;42.81;98910.21;;;;-53
2021/04/28 15:50:33;;;;;;;2.11;1.60;;;;;;;19.83;42.77;98910.93;;;;-53
2021/04/28 15:53:32;;;;;;;2.45;1.65;;;;;;;19.84;42.85;98907.27;;;;-51
2021/04/28 15:56:33;;;;;;;1.90;1.69;;;;;;;19.85;42.83;98906.81;;;;-45
2021/04/28 15:59:33;;;;;;;1.86;1.59;;;;;;;19.86;42.87;98905.91;;;;-47
2021/04/28 16:02:32;;;;;;;2.81;1.83;;;;;;;19.86;42.86;98901.69;;;;-51
2021/04/28 16:05:32;;;;;;;2.11;1.62;;;;;;;19.86;42.83;98898.60;;;;-51
2021/04/28 16:08:32;;;;;;;1.60;1.50;;;;;;;19.86;42.86;98904.77;;;;-52
2021/04/28 16:11:32;;;;;;;1.83;1.50;;;;;;;19.86;42.80;98899.91;;;;-60
2021/04/28 16:14:32;;;;;;;5.13;1.60;;;;;;;19.87;42.85;98902.38;;;;-63
2021/04/28 16:17:32;;;;;;;3.69;1.71;;;;;;;19.87;42.85;98898.01;;;;-60
2021/04/28 16:20:32;;;;;;;2.50;1.58;;;;;;;19.87;42.86;98891.43;;;;-51
2021/04/28 16:23:32;;;;;;;2.01;1.61;;;;;;;19.87;42.68;98888.56;;;;-51
2021/04/28 16:26:32;;;;;;;3.41;1.68;;;;;;;19.86;42.53;98883.81;;;;-51
2021/04/28 16:29:32;;;;;;;3.32;1.71;;;;;;;19.86;42.49;98892.73;;;;-54
2021/04/28 16:32:32;;;;;;;2.15;1.55;;;;;;;19.84;42.43;98886.36;;;;-54
2021/04/28 16:35:32;;;;;;;3.06;1.72;;;;;;;19.83;42.62;98881.25;;;;-56
2021/04/28 16:38:32;;;;;;;2.33;1.60;;;;;;;19.84;42.63;98877.02;;;;-46
2021/04/28 16:41:33;;;;;;;2.27;1.61;;;;;;;19.85;42.77;98879.61;;;;-47
2021/04/28 16:44:32;;;;;;;2.95;1.81;;;;;;;19.85;42.77;98879.03;;;;-45
2021/04/28 16:47:32;;;;;;;2.61;1.55;;;;;;;19.86;42.67;98876.31;;;;-46
2021/04/28 16:50:33;;;;;;;4.15;1.59;;;;;;;19.86;42.83;98874.62;;;;-46
2021/04/28 16:53:34;;;;;;;2.20;1.61;;;;;;;19.87;42.77;98876.85;;;;-49
2021/04/28 16:56:33;;;;;;;1.67;1.51;;;;;;;19.88;42.86;98875.30;;;;-48